createdAt,value
2019-03-01T00:01:55.388Z,149.12
2019-03-01T00:04:41.003Z,143.62
2019-03-01T00:07:33.620Z,151.75
2019-03-01T00:10:15.999Z,152.15
2019-03-01T00:12:58.168Z,144.60
2019-03-01T00:15:52.688Z,152.27
2019-03-01T00:18:48.300Z,151.90
2019-03-01T00:21:47.309Z,146.43
2019-03-01T00:24:26.514Z,150.30
2019-03-01T00:27:08.775Z,149.97
2019-03-01T00:29:50.930Z,143.93
2019-03-01T00:32:49.692Z,143.90
2019-03-01T00:35:47.174Z,144.00
2019-03-01T00:38:23.369Z,142.18
2019-03-01T00:41:14.681Z,143.05
2019-03-01T00:43:51.187Z,148.28
2019-03-01T00:46:22.454Z,146.77
2019-03-01T00:48:52.704Z,141.43
2019-03-01T00:51:22.867Z,133.63
2019-03-01T00:53:53.114Z,140.28
2019-03-01T00:56:23.294Z,138.50
2019-03-01T00:58:53.573Z,138.00
2019-03-01T01:01:23.775Z,139.12
2019-03-01T01:03:54.031Z,155.40
2019-03-01T01:06:24.208Z,147.93
2019-03-01T01:08:54.429Z,138.22
2019-03-01T01:11:24.619Z,145.97
2019-03-01T01:13:54.875Z,143.60
2019-03-01T01:16:25.033Z,127.90
2019-03-01T01:18:55.296Z,131.07
2019-03-01T01:21:25.521Z,134.75
2019-03-01T01:23:55.779Z,127.10
2019-03-01T01:26:25.942Z,138.28
2019-03-01T01:28:56.178Z,147.80
2019-03-01T01:31:26.334Z,148.32
2019-03-01T01:33:56.601Z,150.42
2019-03-01T01:36:26.851Z,146.20
2019-03-01T01:38:57.098Z,156.95
2019-03-01T01:41:27.326Z,154.12
2019-03-01T01:43:57.556Z,158.95
2019-03-01T01:46:27.787Z,154.57
2019-03-01T01:48:58.030Z,152.25
2019-03-01T01:51:29.508Z,148.80
2019-03-01T01:53:59.770Z,131.63
2019-03-01T01:56:29.966Z,134.82
2019-03-01T01:59:00.210Z,135.43
2019-03-01T02:01:30.375Z,136.80
2019-03-01T02:04:00.642Z,132.05
2019-03-01T02:06:30.820Z,136.85
2019-03-01T02:09:01.052Z,129.68
2019-03-01T02:11:32.772Z,149.68
2019-03-01T02:14:03.025Z,149.05
2019-03-01T02:16:34.150Z,147.13
2019-03-01T02:19:04.401Z,145.57
2019-03-01T02:21:34.595Z,137.43
2019-03-01T02:24:04.814Z,146.80
2019-03-01T02:26:35.007Z,150.12
2019-03-01T02:29:05.229Z,153.18
2019-03-01T02:31:35.645Z,143.35
2019-03-01T02:34:06.085Z,141.82
2019-03-01T02:36:36.276Z,133.43
2019-03-01T02:39:06.509Z,128.78
2019-03-01T02:41:37.296Z,146.95
2019-03-01T02:44:07.569Z,149.23
2019-03-01T02:46:37.840Z,132.57
2019-03-01T02:49:09.301Z,144.37
2019-03-01T02:51:39.493Z,123.13
2019-03-01T02:54:09.708Z,131.47
2019-03-01T02:56:39.879Z,135.57
2019-03-01T02:59:10.111Z,137.70
2019-03-01T03:01:40.295Z,132.60
2019-03-01T03:04:10.616Z,152.55
2019-03-01T03:06:42.378Z,150.47
2019-03-01T03:09:12.920Z,147.32
2019-03-01T03:11:43.074Z,141.70
2019-03-01T03:14:13.309Z,160.12
2019-03-01T03:16:43.484Z,167.77
2019-03-01T03:19:13.750Z,162.03
2019-03-01T03:21:43.929Z,145.80
2019-03-01T03:24:14.189Z,139.80
2019-03-01T03:26:44.350Z,127.58
2019-03-01T03:29:14.584Z,131.82
2019-03-01T03:31:44.837Z,123.55
2019-03-01T03:34:16.308Z,147.95
2019-03-01T03:36:46.535Z,152.53
2019-03-01T03:39:16.763Z,130.55
2019-03-01T03:41:47.046Z,129.45
2019-03-01T03:44:17.262Z,152.17
2019-03-01T03:46:47.588Z,150.72
2019-03-01T03:49:17.829Z,134.10
2019-03-01T03:51:48.084Z,134.05
2019-03-01T03:54:18.315Z,128.05
2019-03-01T03:56:48.559Z,128.82
2019-03-01T03:59:18.792Z,140.32
2019-03-01T04:01:49.051Z,139.77
2019-03-01T04:04:20.116Z,136.37
2019-03-01T04:06:50.366Z,126.07
2019-03-01T04:09:20.646Z,125.35
2019-03-01T04:11:50.890Z,138.35
2019-03-01T04:14:21.065Z,147.70
2019-03-01T04:16:51.336Z,131.93
2019-03-01T04:19:21.675Z,142.15
2019-03-01T04:21:51.904Z,124.72
2019-03-01T04:24:22.165Z,129.00
2019-03-01T04:26:52.413Z,128.72
2019-03-01T04:29:22.635Z,129.23
2019-03-01T04:31:53.707Z,142.87
2019-03-01T04:34:23.972Z,140.37
2019-03-01T04:36:54.217Z,151.10
2019-03-01T04:39:24.464Z,159.00
2019-03-01T04:41:54.669Z,160.35
2019-03-01T04:44:24.890Z,153.02
2019-03-01T04:46:55.109Z,125.82
2019-03-01T04:49:25.390Z,139.10
2019-03-01T04:51:55.700Z,139.70
2019-03-01T04:54:25.936Z,135.93
2019-03-01T04:56:56.192Z,127.15
2019-03-01T04:59:26.424Z,138.55
2019-03-01T05:01:56.656Z,133.32
2019-03-01T05:04:26.889Z,133.82
2019-03-01T05:06:57.246Z,137.07
2019-03-01T05:09:27.517Z,130.80
2019-03-01T05:11:57.764Z,135.48
2019-03-01T05:14:28.016Z,132.78
2019-03-01T05:16:58.350Z,129.97
2019-03-01T05:19:28.567Z,131.57
2019-03-01T05:21:58.853Z,126.10
2019-03-01T05:24:29.073Z,129.23
2019-03-01T05:26:59.306Z,137.03
2019-03-01T05:29:30.810Z,135.82
2019-03-01T05:32:01.066Z,138.52
2019-03-01T05:34:31.316Z,131.90
2019-03-01T05:37:01.555Z,132.27
2019-03-01T05:39:31.817Z,134.55
2019-03-01T05:42:02.031Z,129.12
2019-03-01T05:44:32.296Z,127.10
2019-03-01T05:47:02.544Z,168.65
2019-03-01T05:49:32.792Z,135.93
2019-03-01T05:52:03.007Z,128.47
2019-03-01T05:54:33.253Z,126.27
2019-03-01T05:57:03.519Z,135.90
2019-03-01T05:59:33.744Z,137.47
2019-03-01T06:02:29.778Z,130.55
2019-03-01T06:05:00.410Z,154.30
2019-03-01T06:07:39.873Z,133.57
2019-03-01T06:10:16.025Z,137.05
2019-03-01T06:13:07.488Z,147.68
2019-03-01T06:15:53.024Z,148.67
2019-03-01T06:18:42.890Z,165.10
2019-03-01T06:21:47.953Z,159.72
2019-03-01T06:24:30.270Z,163.80
2019-03-01T06:27:29.253Z,159.27
2019-03-01T06:30:05.246Z,169.00
2019-03-01T06:33:02.897Z,171.57
2019-03-01T06:35:38.956Z,163.55
2019-03-01T06:38:39.462Z,146.93
2019-03-01T06:41:17.036Z,149.97
2019-03-01T06:43:50.396Z,160.82
2019-03-01T06:46:38.850Z,158.95
2019-03-01T06:49:11.848Z,171.45
2019-03-01T06:51:42.011Z,170.38
2019-03-01T06:54:12.265Z,160.67
2019-03-01T06:56:42.438Z,165.80
2019-03-01T06:59:12.723Z,162.05
2019-03-01T07:01:43.836Z,171.32
2019-03-01T07:04:15.066Z,167.03
2019-03-01T07:06:45.238Z,122.67
2019-03-01T07:09:15.474Z,160.93
2019-03-01T07:11:45.655Z,161.75
2019-03-01T07:14:16.820Z,156.12
2019-03-01T07:16:46.999Z,144.77
2019-03-01T07:19:17.252Z,137.75
2019-03-01T07:21:47.592Z,119.85
2019-03-01T07:24:17.928Z,132.67
2019-03-01T07:26:48.401Z,134.12
2019-03-01T07:29:18.623Z,128.87
2019-03-01T07:31:48.797Z,133.55
2019-03-01T07:34:19.007Z,122.92
2019-03-01T07:36:49.180Z,176.68
2019-03-01T07:39:19.555Z,115.52
2019-03-01T07:41:49.778Z,116.35
2019-03-01T07:44:19.995Z,97.65
2019-03-01T07:46:53.278Z,107.50
2019-03-01T07:49:22.044Z,109.05
2019-03-01T07:51:52.254Z,101.80
2019-03-01T07:54:22.540Z,107.83
2019-03-01T07:56:52.805Z,98.80
2019-03-01T07:59:24.037Z,100.90
2019-03-01T08:01:55.948Z,99.85
2019-03-01T08:04:28.870Z,93.67
2019-03-01T08:06:58.244Z,94.95
2019-03-01T08:09:28.393Z,91.82
2019-03-01T08:11:58.615Z,91.05
2019-03-01T08:14:31.523Z,94.90
2019-03-01T08:17:01.832Z,101.15
2019-03-01T08:19:33.346Z,103.90
2019-03-01T08:22:03.562Z,95.62
2019-03-01T08:24:33.711Z,91.35
2019-03-01T08:27:06.511Z,98.47
2019-03-01T08:29:35.823Z,98.58
2019-03-01T08:32:06.076Z,102.90
2019-03-01T08:34:37.345Z,105.47
2019-03-01T08:37:08.241Z,109.85
2019-03-01T08:39:39.723Z,103.07
2019-03-01T08:42:10.543Z,107.40
2019-03-01T08:44:40.709Z,109.75
2019-03-01T08:47:10.964Z,116.30
2019-03-01T08:49:41.117Z,134.78
2019-03-01T08:52:11.373Z,100.45
2019-03-01T08:54:41.544Z,110.35
2019-03-01T08:57:11.901Z,108.47
2019-03-01T08:59:42.171Z,104.95
2019-03-01T09:02:12.462Z,94.87
2019-03-01T09:04:50.657Z,122.42
2019-03-01T09:07:15.903Z,114.80
2019-03-01T09:09:56.850Z,116.45
2019-03-01T09:12:28.167Z,120.82
2019-03-01T09:14:58.494Z,112.10
2019-03-01T09:17:28.829Z,115.60
2019-03-01T09:20:00.204Z,119.85
2019-03-01T09:22:30.897Z,122.53
2019-03-01T09:25:02.693Z,120.67
2019-03-01T09:27:33.061Z,118.33
2019-03-01T09:30:03.968Z,125.92
2019-03-01T09:32:34.871Z,112.17
2019-03-01T09:35:16.113Z,120.97
2019-03-01T09:37:46.409Z,114.45
2019-03-01T09:40:16.577Z,117.42
2019-03-01T09:42:47.400Z,115.32
2019-03-01T09:45:19.392Z,112.95
2019-03-01T09:47:49.784Z,112.97
2019-03-01T09:50:20.158Z,131.45
2019-03-01T09:52:50.407Z,108.20
2019-03-01T09:55:20.558Z,101.05
2019-03-01T09:57:50.808Z,102.27
2019-03-01T10:00:35.889Z,97.95
2019-03-01T10:03:06.106Z,104.53
2019-03-01T10:05:36.273Z,103.30
2019-03-01T10:08:07.752Z,106.20
2019-03-01T10:10:38.274Z,108.32
2019-03-01T10:13:09.516Z,98.42
2019-03-01T10:15:39.687Z,110.25
2019-03-01T10:18:09.909Z,102.47
2019-03-01T10:20:40.104Z,99.15
2019-03-01T10:23:10.334Z,93.27
2019-03-01T10:25:40.520Z,107.65
2019-03-01T10:28:22.279Z,99.65
2019-03-01T10:30:53.398Z,99.00
2019-03-01T10:33:23.634Z,110.95
2019-03-01T10:35:53.828Z,109.03
2019-03-01T10:38:24.075Z,109.35
2019-03-01T10:40:54.402Z,104.72
2019-03-01T10:43:24.650Z,103.58
2019-03-01T10:45:54.834Z,100.75
2019-03-01T10:48:25.093Z,107.97
2019-03-01T10:50:55.279Z,105.83
2019-03-01T10:53:25.525Z,102.30
2019-03-01T10:55:55.735Z,126.53
2019-03-01T10:58:25.964Z,100.33
2019-03-01T11:00:56.150Z,94.67
2019-03-01T11:03:26.432Z,100.53
2019-03-01T11:05:56.607Z,96.80
2019-03-01T11:08:26.846Z,99.67
2019-03-01T11:10:57.010Z,100.33
2019-03-01T11:13:27.223Z,98.90
2019-03-01T11:15:57.392Z,90.92
2019-03-01T11:18:27.645Z,91.92
2019-03-01T11:20:57.864Z,95.30
2019-03-01T11:23:28.113Z,96.17
2019-03-01T11:25:58.291Z,93.92
2019-03-01T11:28:28.542Z,91.08
2019-03-01T11:30:58.714Z,94.45
2019-03-01T11:33:28.983Z,96.12
2019-03-01T11:35:59.153Z,98.58
2019-03-01T11:38:29.395Z,93.60
2019-03-01T11:41:12.280Z,97.10
2019-03-01T11:43:45.355Z,94.42
2019-03-01T11:46:15.526Z,135.65
2019-03-01T11:48:45.786Z,100.62
2019-03-01T11:51:16.066Z,96.53
2019-03-01T11:53:46.339Z,95.97
2019-03-01T11:56:16.627Z,96.40
2019-03-01T11:58:46.915Z,97.70
2019-03-01T12:01:18.323Z,93.53
2019-03-01T12:03:48.577Z,91.75
2019-03-01T12:06:18.751Z,94.97
2019-03-01T12:08:49.095Z,102.32
2019-03-01T12:11:19.330Z,104.53
2019-03-01T12:13:49.672Z,98.20
2019-03-01T12:16:19.864Z,158.70
2019-03-01T12:18:51.403Z,102.10
2019-03-01T12:21:21.598Z,107.27
2019-03-01T12:23:51.853Z,105.85
2019-03-01T12:26:22.097Z,102.12
2019-03-01T12:28:52.418Z,100.00
2019-03-01T12:31:22.587Z,110.65
2019-03-01T12:33:54.037Z,110.73
2019-03-01T12:36:24.226Z,118.93
2019-03-01T12:38:54.492Z,98.82
2019-03-01T12:41:24.668Z,106.07
2019-03-01T12:43:54.923Z,120.42
2019-03-01T12:46:26.292Z,105.35
2019-03-01T12:48:56.581Z,107.58
2019-03-01T12:51:26.841Z,108.47
2019-03-01T12:53:57.102Z,107.27
2019-03-01T12:56:27.349Z,110.22
2019-03-01T12:58:57.613Z,104.87
2019-03-01T13:01:27.823Z,100.18
2019-03-01T13:03:58.075Z,98.85
2019-03-01T13:06:28.310Z,98.20
2019-03-01T13:08:58.589Z,102.72
2019-03-01T13:11:28.822Z,133.45
2019-03-01T13:13:59.052Z,91.00
2019-03-01T13:16:29.375Z,88.40
2019-03-01T13:18:59.600Z,113.60
2019-03-01T13:21:29.854Z,97.20
2019-03-01T13:24:00.101Z,98.92
2019-03-01T13:26:30.352Z,87.97
2019-03-01T13:29:00.572Z,91.63
2019-03-01T13:31:30.813Z,89.35
2019-03-01T13:34:01.073Z,90.05
2019-03-01T13:36:31.314Z,86.60
2019-03-01T13:39:01.573Z,95.57
2019-03-01T13:41:33.937Z,103.55
2019-03-01T13:44:05.219Z,103.15
2019-03-01T13:46:35.472Z,101.42
2019-03-01T13:49:05.671Z,96.80
2019-03-01T13:51:35.909Z,98.03
2019-03-01T13:54:08.981Z,91.25
2019-03-01T13:56:37.991Z,92.17
2019-03-01T13:59:08.204Z,99.60
2019-03-01T14:01:38.551Z,96.25
2019-03-01T14:04:09.533Z,94.40
2019-03-01T14:06:40.121Z,88.70
2019-03-01T14:09:12.494Z,86.90
2019-03-01T14:11:42.736Z,83.95
2019-03-01T14:14:12.915Z,88.72
2019-03-01T14:16:44.458Z,89.83
2019-03-01T14:19:14.645Z,92.35
2019-03-01T14:21:44.873Z,87.42
2019-03-01T14:24:15.095Z,100.67
2019-03-01T14:26:45.332Z,95.03
2019-03-01T14:29:16.070Z,91.82
2019-03-01T14:31:47.221Z,89.05
2019-03-01T14:34:17.389Z,90.12
2019-03-01T14:36:47.634Z,79.32
2019-03-01T14:39:17.824Z,83.65
2019-03-01T14:41:48.047Z,83.03
2019-03-01T14:44:18.293Z,76.07
2019-03-01T14:46:48.534Z,80.65
2019-03-01T14:49:21.670Z,72.87
2019-03-01T14:51:50.694Z,83.30
2019-03-01T14:54:21.353Z,77.08
2019-03-01T14:56:51.835Z,76.60
2019-03-01T14:59:25.207Z,74.10
2019-03-01T15:02:10.653Z,63.25
2019-03-01T15:04:40.878Z,68.07
2019-03-01T15:07:11.133Z,78.00
2019-03-01T15:09:41.366Z,70.72
2019-03-01T15:12:11.631Z,65.35
2019-03-01T15:14:42.819Z,66.20
2019-03-01T15:17:14.797Z,63.58
2019-03-01T15:19:45.429Z,69.72
2019-03-01T15:22:15.966Z,88.55
2019-03-01T15:24:47.495Z,77.87
2019-03-01T15:27:17.904Z,68.50
2019-03-01T15:29:48.120Z,67.87
2019-03-01T15:32:18.414Z,71.50
2019-03-01T15:34:48.655Z,68.65
2019-03-01T15:37:18.811Z,66.12
2019-03-01T15:39:51.297Z,62.48
2019-03-01T15:42:21.191Z,69.50
2019-03-01T15:44:51.582Z,64.70
2019-03-01T15:47:23.875Z,97.62
2019-03-01T15:49:53.976Z,63.55
2019-03-01T15:52:24.463Z,64.58
2019-03-01T15:54:54.713Z,67.53
2019-03-01T15:57:24.932Z,59.77
2019-03-01T15:59:55.134Z,55.55
2019-03-01T16:02:25.368Z,68.57
2019-03-01T16:04:55.597Z,61.77
2019-03-01T16:07:25.796Z,68.97
2019-03-01T16:09:58.286Z,59.23
2019-03-01T16:12:29.006Z,59.95
2019-03-01T16:15:00.495Z,72.85
2019-03-01T16:17:32.858Z,64.87
2019-03-01T16:20:05.831Z,69.97
2019-03-01T16:22:36.088Z,74.87
2019-03-01T16:25:17.217Z,68.52
2019-03-01T16:27:50.656Z,71.33
2019-03-01T16:30:21.140Z,60.98
2019-03-01T16:32:51.572Z,64.37
2019-03-01T16:35:21.853Z,69.62
2019-03-01T16:37:53.683Z,67.12
2019-03-01T16:40:24.978Z,63.95
2019-03-01T16:42:55.232Z,70.52
2019-03-01T16:45:26.110Z,66.35
2019-03-01T16:47:56.339Z,65.50
2019-03-01T16:50:26.518Z,71.87
2019-03-01T16:52:56.768Z,108.03
2019-03-01T16:55:30.410Z,71.55
2019-03-01T17:00:31.582Z,66.10
2019-03-01T17:03:16.758Z,67.15
2019-03-01T17:05:45.066Z,83.85
2019-03-01T17:08:15.294Z,77.60
2019-03-01T17:10:45.453Z,80.70
2019-03-01T17:13:15.690Z,76.28
2019-03-01T17:15:48.501Z,77.92
2019-03-01T17:18:17.714Z,74.32
2019-03-01T17:20:47.900Z,68.37
2019-03-01T17:23:19.137Z,72.25
2019-03-01T17:25:49.314Z,70.28
2019-03-01T17:28:22.824Z,70.12
2019-03-01T17:30:51.758Z,71.87
2019-03-01T17:33:22.177Z,56.37
2019-03-01T17:35:52.518Z,69.65
2019-03-01T17:38:22.761Z,70.57
2019-03-01T17:40:52.982Z,66.17
2019-03-01T17:43:23.224Z,64.62
2019-03-01T17:45:54.436Z,58.33
2019-03-01T17:48:25.377Z,62.90
2019-03-01T17:50:55.618Z,66.47
2019-03-01T17:53:25.825Z,60.95
2019-03-01T17:55:56.099Z,63.73
2019-03-01T17:58:26.478Z,68.37
2019-03-01T18:00:58.872Z,61.63
2019-03-01T18:03:28.900Z,66.10
2019-03-01T18:05:59.632Z,64.37
2019-03-01T18:08:30.198Z,67.42
2019-03-01T18:11:00.679Z,63.63
2019-03-01T18:13:31.412Z,74.10
2019-03-01T18:16:01.833Z,67.47
2019-03-01T18:18:34.005Z,66.75
2019-03-01T18:21:04.385Z,62.78
2019-03-01T18:23:37.908Z,65.62
2019-03-01T18:26:06.965Z,76.97
2019-03-01T18:28:38.813Z,66.53
2019-03-01T18:31:10.696Z,73.25
2019-03-01T18:33:42.654Z,72.97
2019-03-01T18:36:13.475Z,77.55
2019-03-01T18:38:44.197Z,80.65
2019-03-01T18:41:14.800Z,67.32
2019-03-01T18:43:48.758Z,63.28
2019-03-01T18:48:48.985Z,58.45
2019-03-01T18:51:19.575Z,68.33
2019-03-01T18:53:50.205Z,68.90
2019-03-01T18:56:20.766Z,74.65
2019-03-01T18:58:51.432Z,71.22
2019-03-01T19:01:22.011Z,67.70
2019-03-01T19:03:53.868Z,64.87
2019-03-01T19:06:24.366Z,74.92
2019-03-01T19:08:55.021Z,104.78
2019-03-01T19:11:25.561Z,79.65
2019-03-01T19:13:58.515Z,70.55
2019-03-01T19:16:28.634Z,65.92
2019-03-01T19:19:00.176Z,86.28
2019-03-01T19:21:30.757Z,71.17
2019-03-01T19:24:04.688Z,69.90
2019-03-01T19:29:05.021Z,69.37
2019-03-01T19:31:35.630Z,73.65
2019-03-01T19:34:07.295Z,64.80
2019-03-01T19:36:38.938Z,67.15
2019-03-01T19:39:13.280Z,61.40
2019-03-01T19:41:46.864Z,65.25
2019-03-01T19:44:17.590Z,68.95
2019-03-01T19:46:51.325Z,88.85
2019-03-01T19:51:50.701Z,66.87
2019-03-01T19:54:21.384Z,71.12
2019-03-01T19:56:52.097Z,87.12
2019-03-01T19:59:22.833Z,82.97
2019-03-01T20:01:56.184Z,82.85
2019-03-01T20:06:55.592Z,83.85
2019-03-01T20:09:26.274Z,77.10
2019-03-01T20:11:59.206Z,67.70
2019-03-01T20:17:00.494Z,71.62
2019-03-01T20:19:31.186Z,85.17
2019-03-01T20:22:01.841Z,83.70
2019-03-01T20:24:32.521Z,70.42
2019-03-01T20:27:03.850Z,77.55
2019-03-01T20:29:34.622Z,71.82
2019-03-01T20:32:05.191Z,77.60
2019-03-01T20:34:38.032Z,73.02
2019-03-01T20:37:08.158Z,78.22
2019-03-01T20:39:38.639Z,73.17
2019-03-01T20:42:09.108Z,67.90
2019-03-01T20:44:39.798Z,71.25
2019-03-01T20:47:10.172Z,81.55
2019-03-01T20:49:40.523Z,70.85
2019-03-01T20:52:11.255Z,76.33
2019-03-01T20:54:41.525Z,81.30
2019-03-01T20:57:12.033Z,91.50
2019-03-01T20:59:42.263Z,77.27
2019-03-01T21:02:13.091Z,83.65
2019-03-01T21:04:53.321Z,84.55
2019-03-01T21:09:47.065Z,91.00
2019-03-01T21:12:17.338Z,83.67
2019-03-01T21:14:47.792Z,89.90
2019-03-01T21:17:20.306Z,103.22
2019-03-01T21:19:49.922Z,139.35
2019-03-01T21:22:20.096Z,141.70
2019-03-01T21:24:50.445Z,152.90
2019-03-01T21:27:22.670Z,144.15
2019-03-01T21:29:52.451Z,147.32
2019-03-01T21:32:22.612Z,134.78
2019-03-01T21:34:53.834Z,144.55
2019-03-01T21:37:23.995Z,137.95
2019-03-01T21:39:55.578Z,130.87
2019-03-01T21:42:25.997Z,129.47
2019-03-01T21:44:56.219Z,122.87
2019-03-01T21:47:26.378Z,133.32
2019-03-01T21:49:59.768Z,134.72
2019-03-01T21:52:29.611Z,141.05
2019-03-01T21:54:59.967Z,138.40
2019-03-01T21:57:31.175Z,146.77
2019-03-01T22:00:01.922Z,136.88
2019-03-01T22:02:33.831Z,134.12
2019-03-01T22:05:05.151Z,142.85
2019-03-01T22:07:37.133Z,154.73
2019-03-01T22:10:09.870Z,144.77
2019-03-01T22:12:40.104Z,134.90
2019-03-01T22:15:13.373Z,148.82
2019-03-01T22:17:45.453Z,137.47
2019-03-01T22:20:15.435Z,143.85
2019-03-01T22:22:45.668Z,137.25
2019-03-01T22:25:15.997Z,135.55
2019-03-01T22:27:46.216Z,128.97
2019-03-01T22:30:30.668Z,132.27
2019-03-01T22:33:00.918Z,124.10
2019-03-01T22:35:31.121Z,127.27
2019-03-01T22:38:04.796Z,136.18
2019-03-01T22:40:33.173Z,128.38
2019-03-01T22:43:03.429Z,126.20
2019-03-01T22:45:33.892Z,127.75
2019-03-01T22:48:04.338Z,128.65
2019-03-01T22:50:34.551Z,133.70
2019-03-01T22:53:06.547Z,135.65
2019-03-01T22:55:37.814Z,129.57
2019-03-01T22:58:08.042Z,134.47
2019-03-01T23:00:57.816Z,139.35
2019-03-01T23:03:26.696Z,131.43
2019-03-01T23:05:56.929Z,149.72
2019-03-01T23:08:27.233Z,154.20
2019-03-01T23:10:57.888Z,153.62
2019-03-01T23:13:28.366Z,130.22
2019-03-01T23:15:58.600Z,126.78
2019-03-01T23:18:28.829Z,134.05
2019-03-01T23:21:01.101Z,160.65
2019-03-01T23:23:30.906Z,149.85
2019-03-01T23:26:01.153Z,143.35
2019-03-01T23:28:31.368Z,135.70
2019-03-01T23:31:03.660Z,141.20
2019-03-01T23:33:33.445Z,131.10
2019-03-01T23:36:03.703Z,123.58
2019-03-01T23:38:34.998Z,138.55
2019-03-01T23:41:07.804Z,167.20
2019-03-01T23:43:37.057Z,159.00
2019-03-01T23:46:07.306Z,139.18
2019-03-01T23:48:37.611Z,140.73
2019-03-01T23:51:10.600Z,123.02
2019-03-01T23:53:39.677Z,126.72
2019-03-01T23:56:09.913Z,133.65
2019-03-01T23:58:40.131Z,124.25
